createdAt,value
2019-02-16T00:01:37.037Z,3.37
2019-02-16T00:04:07.013Z,3.50
2019-02-16T00:06:36.921Z,3.50
2019-02-16T00:09:07.267Z,3.47
2019-02-16T00:11:37.266Z,3.10
2019-02-16T00:14:07.373Z,3.50
2019-02-16T00:16:38.560Z,3.50
2019-02-16T00:19:08.476Z,3.70
2019-02-16T00:21:40.047Z,3.70
2019-02-16T00:24:10.167Z,3.63
2019-02-16T00:26:40.174Z,3.77
2019-02-16T00:29:10.442Z,4.03
2019-02-16T00:31:40.444Z,3.40
2019-02-16T00:34:10.939Z,3.67
2019-02-16T00:36:40.928Z,4.27
2019-02-16T00:39:11.046Z,3.80
2019-02-16T00:41:40.830Z,3.53
2019-02-16T00:44:10.821Z,4.80
2019-02-16T00:46:41.089Z,4.83
2019-02-16T00:49:14.353Z,4.50
2019-02-16T00:51:46.640Z,3.50
2019-02-16T00:54:16.469Z,3.92
2019-02-16T00:56:46.670Z,4.27
2019-02-16T00:59:16.490Z,4.05
2019-02-16T01:01:46.387Z,3.90
2019-02-16T01:04:16.332Z,4.37
2019-02-16T01:06:46.200Z,4.10
2019-02-16T01:09:16.045Z,4.42
2019-02-16T01:11:46.154Z,4.27
2019-02-16T01:14:16.294Z,4.43
2019-02-16T01:16:47.091Z,4.33
2019-02-16T01:19:17.175Z,4.40
2019-02-16T01:21:46.969Z,5.23
2019-02-16T01:24:16.922Z,4.47
2019-02-16T01:26:47.111Z,3.87
2019-02-16T01:29:17.068Z,3.80
2019-02-16T01:31:47.019Z,3.83
2019-02-16T01:34:17.123Z,3.30
2019-02-16T01:36:47.463Z,3.83
2019-02-16T01:39:17.562Z,3.87
2019-02-16T01:41:48.020Z,3.30
2019-02-16T01:44:18.952Z,3.27
2019-02-16T01:46:48.943Z,3.70
2019-02-16T01:49:19.816Z,3.60
2019-02-16T01:51:49.561Z,3.40
2019-02-16T01:54:19.369Z,3.70
2019-02-16T01:56:49.162Z,3.50
2019-02-16T01:59:19.020Z,3.10
2019-02-16T02:01:48.870Z,3.22
2019-02-16T02:04:18.747Z,3.77
2019-02-16T02:06:48.608Z,3.50
2019-02-16T02:09:18.846Z,3.60
2019-02-16T02:11:48.876Z,3.50
2019-02-16T02:14:18.901Z,4.00
2019-02-16T02:16:48.655Z,3.77
2019-02-16T02:19:18.541Z,3.70
2019-02-16T02:21:48.393Z,3.73
2019-02-16T02:24:18.317Z,3.93
2019-02-16T02:26:48.170Z,3.50
2019-02-16T02:29:18.160Z,3.77
2019-02-16T02:31:48.159Z,3.72
2019-02-16T02:34:17.964Z,3.57
2019-02-16T02:36:48.245Z,3.97
2019-02-16T02:39:18.066Z,4.10
2019-02-16T02:41:47.853Z,4.10
2019-02-16T02:44:17.793Z,4.27
2019-02-16T02:46:47.765Z,3.83
2019-02-16T02:49:17.798Z,4.10
2019-02-16T02:51:52.218Z,3.90
2019-02-16T02:54:19.371Z,3.87
2019-02-16T02:56:49.631Z,3.70
2019-02-16T02:59:19.530Z,4.07
2019-02-16T03:01:49.617Z,4.00
2019-02-16T03:04:19.504Z,3.40
2019-02-16T03:06:49.435Z,3.47
2019-02-16T03:09:19.473Z,3.62
2019-02-16T03:11:49.434Z,3.73
2019-02-16T03:14:19.656Z,3.87
2019-02-16T03:16:49.543Z,4.07
2019-02-16T03:19:19.851Z,3.73
2019-02-16T03:21:49.817Z,3.57
2019-02-16T03:24:20.023Z,3.90
2019-02-16T03:26:54.504Z,3.90
2019-02-16T03:29:44.450Z,3.90
2019-02-16T03:32:40.594Z,4.57
2019-02-16T03:35:38.962Z,4.03
2019-02-16T03:38:37.715Z,3.50
2019-02-16T03:41:07.595Z,4.20
2019-02-16T03:43:37.558Z,3.70
2019-02-16T03:46:07.475Z,4.03
2019-02-16T03:48:37.474Z,4.00
2019-02-16T03:51:07.289Z,5.07
2019-02-16T03:53:37.096Z,4.00
2019-02-16T03:56:06.863Z,4.10
2019-02-16T03:58:36.738Z,4.30
2019-02-16T04:01:06.624Z,3.83
2019-02-16T04:03:36.484Z,4.17
2019-02-16T04:06:06.244Z,3.73
2019-02-16T04:08:36.122Z,3.98
2019-02-16T04:11:06.124Z,3.50
2019-02-16T04:13:36.167Z,3.80
2019-02-16T04:16:17.928Z,3.77
2019-02-16T04:18:48.517Z,4.00
2019-02-16T04:21:18.453Z,3.77
2019-02-16T04:23:48.408Z,3.73
2019-02-16T04:26:18.836Z,3.53
2019-02-16T04:28:48.647Z,3.90
2019-02-16T04:31:18.465Z,3.93
2019-02-16T04:33:48.438Z,3.63
2019-02-16T04:36:18.281Z,3.70
2019-02-16T04:38:48.468Z,3.72
2019-02-16T04:41:18.196Z,4.07
2019-02-16T04:43:48.148Z,4.00
2019-02-16T04:46:18.111Z,3.80
2019-02-16T04:48:48.390Z,3.60
2019-02-16T04:51:18.310Z,3.70
2019-02-16T04:53:48.110Z,3.85
2019-02-16T04:56:17.912Z,4.10
2019-02-16T04:58:48.841Z,3.55
2019-02-16T05:01:18.650Z,3.37
2019-02-16T05:03:48.457Z,3.60
2019-02-16T05:06:18.248Z,3.70
2019-02-16T05:08:48.003Z,3.83
2019-02-16T05:11:17.770Z,3.92
2019-02-16T05:13:47.554Z,3.97
2019-02-16T05:16:17.412Z,4.72
2019-02-16T05:18:47.248Z,3.87
2019-02-16T05:21:17.094Z,4.25
2019-02-16T05:23:47.160Z,4.87
2019-02-16T05:26:17.182Z,4.10
2019-02-16T05:28:47.032Z,4.13
2019-02-16T05:31:16.812Z,4.27
2019-02-16T05:33:46.630Z,4.23
2019-02-16T05:36:16.585Z,4.63
2019-02-16T05:38:46.310Z,4.53
2019-02-16T05:41:16.255Z,4.07
2019-02-16T05:43:46.147Z,4.10
2019-02-16T05:46:16.129Z,3.70
2019-02-16T05:48:45.974Z,3.73
2019-02-16T05:51:16.002Z,4.07
2019-02-16T05:53:45.848Z,3.93
2019-02-16T05:56:15.677Z,4.28
2019-02-16T05:58:45.588Z,4.23
2019-02-16T06:01:15.402Z,4.47
2019-02-16T06:03:45.261Z,4.40
2019-02-16T06:06:15.032Z,3.97
2019-02-16T06:08:45.868Z,4.13
2019-02-16T06:11:15.683Z,4.10
2019-02-16T06:13:45.529Z,4.47
2019-02-16T06:16:15.324Z,4.05
2019-02-16T06:18:45.172Z,3.87
2019-02-16T06:21:14.981Z,4.30
2019-02-16T06:23:44.818Z,4.23
2019-02-16T06:26:15.169Z,4.37
2019-02-16T06:28:45.024Z,3.97
2019-02-16T06:31:15.679Z,4.00
2019-02-16T06:33:46.099Z,4.63
2019-02-16T06:36:44.202Z,4.30
2019-02-16T06:39:14.084Z,4.70
2019-02-16T06:41:44.021Z,4.60
2019-02-16T06:44:13.933Z,4.70
2019-02-16T06:46:43.852Z,4.50
2019-02-16T06:49:14.862Z,4.57
2019-02-16T06:51:44.890Z,4.37
2019-02-16T06:54:15.591Z,4.60
2019-02-16T06:57:08.486Z,4.55
2019-02-16T06:59:38.488Z,4.83
2019-02-16T07:02:08.404Z,4.73
2019-02-16T07:04:38.240Z,4.83
2019-02-16T07:07:08.012Z,4.40
2019-02-16T07:09:37.856Z,5.43
2019-02-16T07:12:07.675Z,5.20
2019-02-16T07:14:37.563Z,5.13
2019-02-16T07:17:26.561Z,4.50
2019-02-16T07:19:58.619Z,5.03
2019-02-16T07:22:28.398Z,4.47
2019-02-16T07:24:58.195Z,4.53
2019-02-16T07:27:28.121Z,4.23
2019-02-16T07:29:58.068Z,4.70
2019-02-16T07:32:28.029Z,4.77
2019-02-16T07:34:57.977Z,4.80
2019-02-16T07:37:27.925Z,4.65
2019-02-16T07:39:58.013Z,4.80
2019-02-16T07:42:29.468Z,5.00
2019-02-16T07:45:14.603Z,5.37
2019-02-16T07:48:01.962Z,4.90
2019-02-16T07:50:44.246Z,5.20
2019-02-16T07:53:30.931Z,7.60
2019-02-16T07:56:13.234Z,11.10
2019-02-16T07:59:14.403Z,7.15
2019-02-16T08:01:51.369Z,7.17
2019-02-16T08:04:32.525Z,6.10
2019-02-16T08:07:24.195Z,5.10
2019-02-16T08:10:18.998Z,6.10
2019-02-16T08:12:56.384Z,5.22
2019-02-16T08:15:36.195Z,5.40
2019-02-16T08:18:23.994Z,4.83
2019-02-16T08:21:04.249Z,5.05
2019-02-16T08:23:41.439Z,5.63
2019-02-16T08:26:22.849Z,5.37
2019-02-16T08:29:10.447Z,4.87
2019-02-16T08:32:14.685Z,5.03
2019-02-16T08:34:59.490Z,4.80
2019-02-16T08:37:42.160Z,5.50
2019-02-16T08:40:28.572Z,5.22
2019-02-16T08:43:13.137Z,5.67
2019-02-16T08:46:03.989Z,5.87
2019-02-16T08:48:40.353Z,5.08
2019-02-16T08:51:22.536Z,5.70
2019-02-16T08:54:10.477Z,5.10
2019-02-16T08:56:58.305Z,5.53
2019-02-16T08:59:45.834Z,5.87
2019-02-16T09:02:22.062Z,5.63
2019-02-16T09:05:16.754Z,5.42
2019-02-16T09:07:55.856Z,5.40
2019-02-16T09:10:47.768Z,5.50
2019-02-16T09:13:42.976Z,5.95
2019-02-16T09:16:22.348Z,5.30
2019-02-16T09:19:11.090Z,4.83
2019-02-16T09:22:10.819Z,5.35
2019-02-16T09:24:56.011Z,5.37
2019-02-16T09:27:36.983Z,5.05
2019-02-16T09:30:22.553Z,5.05
2019-02-16T09:33:26.952Z,5.62
2019-02-16T09:36:03.431Z,5.10
2019-02-16T09:39:02.752Z,5.35
2019-02-16T09:41:55.383Z,5.40
2019-02-16T09:45:02.757Z,5.20
2019-02-16T09:47:47.678Z,5.12
2019-02-16T09:50:25.479Z,4.97
2019-02-16T09:53:04.986Z,5.50
2019-02-16T09:55:57.039Z,5.35
2019-02-16T09:58:35.659Z,5.47
2019-02-16T10:01:33.837Z,5.03
2019-02-16T10:04:18.400Z,5.35
2019-02-16T10:07:13.591Z,5.65
2019-02-16T10:09:54.987Z,5.15
2019-02-16T10:12:56.387Z,4.90
2019-02-16T10:15:43.966Z,5.20
2019-02-16T10:18:31.792Z,5.33
2019-02-16T10:21:27.053Z,5.00
2019-02-16T10:24:31.246Z,5.17
2019-02-16T10:27:20.524Z,5.22
2019-02-16T10:30:15.542Z,6.40
2019-02-16T10:33:03.287Z,6.80
2019-02-16T10:35:51.080Z,7.23
2019-02-16T10:38:28.875Z,6.95
2019-02-16T10:41:16.805Z,7.65
2019-02-16T10:43:56.948Z,6.87
2019-02-16T10:47:01.260Z,6.80
2019-02-16T10:49:49.876Z,7.25
2019-02-16T10:52:57.346Z,6.53
2019-02-16T10:55:56.043Z,6.37
2019-02-16T10:58:37.779Z,5.80
2019-02-16T11:01:25.477Z,6.10
2019-02-16T11:04:00.690Z,5.98
2019-02-16T11:06:41.637Z,6.80
2019-02-16T11:09:29.750Z,7.27
2019-02-16T11:12:09.266Z,6.57
2019-02-16T11:15:01.341Z,6.40
2019-02-16T11:18:05.950Z,6.33
2019-02-16T11:20:57.872Z,6.87
2019-02-16T11:23:34.808Z,6.40
2019-02-16T11:26:34.076Z,7.57
2019-02-16T11:29:35.910Z,7.50
2019-02-16T11:32:25.252Z,6.83
2019-02-16T11:35:08.989Z,6.87
2019-02-16T11:37:58.801Z,7.70
2019-02-16T11:40:48.245Z,6.85
2019-02-16T11:43:41.153Z,7.63
2019-02-16T11:46:24.843Z,7.43
2019-02-16T11:49:12.618Z,7.57
2019-02-16T11:52:01.537Z,8.00
2019-02-16T11:54:54.102Z,8.07
2019-02-16T11:57:52.173Z,8.37
2019-02-16T12:00:31.715Z,7.40
2019-02-16T12:03:19.128Z,7.27
2019-02-16T12:06:11.009Z,7.63
2019-02-16T12:08:54.461Z,7.60
2019-02-16T12:11:47.624Z,7.40
2019-02-16T12:14:26.564Z,7.47
2019-02-16T12:17:15.986Z,7.17
2019-02-16T12:19:57.956Z,7.37
2019-02-16T12:23:02.224Z,7.23
2019-02-16T12:25:38.565Z,7.20
2019-02-16T12:28:36.052Z,6.85
2019-02-16T12:31:12.718Z,6.73
2019-02-16T12:33:54.989Z,7.73
2019-02-16T12:36:36.829Z,7.50
2019-02-16T12:39:26.225Z,7.60
2019-02-16T12:42:21.499Z,8.43
2019-02-16T12:45:00.655Z,8.47
2019-02-16T12:48:08.321Z,7.55
2019-02-16T12:50:52.651Z,7.95
2019-02-16T12:53:34.115Z,8.50
2019-02-16T12:56:21.943Z,7.90
2019-02-16T12:59:13.083Z,7.70
2019-02-16T13:02:00.947Z,7.53
2019-02-16T13:04:53.014Z,8.03
2019-02-16T13:07:41.960Z,7.83
2019-02-16T13:10:34.176Z,7.43
2019-02-16T13:13:18.442Z,7.80
2019-02-16T13:16:17.870Z,9.00
2019-02-16T13:19:17.136Z,8.03
2019-02-16T13:22:08.380Z,8.17
2019-02-16T13:25:24.378Z,7.97
2019-02-16T13:28:09.644Z,7.70
2019-02-16T13:30:48.027Z,7.50
2019-02-16T13:33:41.811Z,6.73
2019-02-16T13:36:28.926Z,7.23
2019-02-16T13:39:30.051Z,7.77
2019-02-16T13:42:20.597Z,7.27
2019-02-16T13:45:01.442Z,6.73
2019-02-16T13:47:50.046Z,7.80
2019-02-16T13:50:34.287Z,7.23
2019-02-16T13:53:18.310Z,7.07
2019-02-16T13:55:58.555Z,7.23
2019-02-16T13:58:52.808Z,6.60
2019-02-16T14:01:32.662Z,6.33
2019-02-16T14:04:37.613Z,7.27
2019-02-16T14:07:26.450Z,7.57
2019-02-16T14:10:18.866Z,7.27
2019-02-16T14:12:55.366Z,6.73
2019-02-16T14:15:48.277Z,8.00
2019-02-16T14:18:18.338Z,8.10
2019-02-16T14:20:49.045Z,7.47
2019-02-16T14:23:20.042Z,7.00
2019-02-16T14:25:50.694Z,6.20
2019-02-16T14:28:20.675Z,7.30
2019-02-16T14:30:50.843Z,7.10
2019-02-16T14:33:21.012Z,7.30
2019-02-16T14:35:52.007Z,6.97
2019-02-16T14:38:32.503Z,7.33
2019-02-16T14:41:02.802Z,6.77
2019-02-16T14:43:33.745Z,7.03
2019-02-16T14:46:03.883Z,6.17
2019-02-16T14:48:33.822Z,7.13
2019-02-16T14:51:03.571Z,6.73
2019-02-16T14:53:34.765Z,7.57
2019-02-16T14:56:04.588Z,6.13
2019-02-16T14:58:34.515Z,8.47
2019-02-16T15:01:05.030Z,7.57
2019-02-16T15:03:36.149Z,7.30
2019-02-16T15:06:06.093Z,6.70
2019-02-16T15:08:35.892Z,6.83
2019-02-16T15:11:05.758Z,8.27
2019-02-16T15:13:35.584Z,7.67
2019-02-16T15:16:05.698Z,7.10
2019-02-16T15:18:35.867Z,7.60
2019-02-16T15:21:06.237Z,7.47
2019-02-16T15:23:38.655Z,7.57
2019-02-16T15:26:09.060Z,7.87
2019-02-16T15:28:39.142Z,8.67
2019-02-16T15:31:09.288Z,8.30
2019-02-16T15:33:39.677Z,8.27
2019-02-16T15:36:13.499Z,8.03
2019-02-16T15:38:43.593Z,8.53
2019-02-16T15:41:17.591Z,8.30
2019-02-16T15:43:48.547Z,9.10
2019-02-16T15:46:18.639Z,8.83
2019-02-16T15:48:48.580Z,9.17
2019-02-16T15:51:19.602Z,9.10
2019-02-16T15:53:50.590Z,9.30
2019-02-16T15:56:21.788Z,8.63
2019-02-16T15:58:51.658Z,9.73
2019-02-16T16:01:21.671Z,10.10
2019-02-16T16:03:51.715Z,10.07
2019-02-16T16:06:25.818Z,9.94
2019-02-16T16:09:17.929Z,9.03
2019-02-16T16:12:16.582Z,10.43
2019-02-16T16:14:57.657Z,9.57
2019-02-16T16:17:52.138Z,9.67
2019-02-16T16:20:53.417Z,9.13
2019-02-16T16:23:48.410Z,9.50
2019-02-16T16:26:40.446Z,10.20
2019-02-16T16:29:21.103Z,9.87
2019-02-16T16:32:01.724Z,10.38
2019-02-16T16:34:41.592Z,10.10
2019-02-16T16:37:33.744Z,9.97
2019-02-16T16:40:11.889Z,9.83
2019-02-16T16:42:51.864Z,9.57
2019-02-16T16:45:39.833Z,10.10
2019-02-16T16:48:26.440Z,9.80
2019-02-16T16:51:03.217Z,10.47
2019-02-16T16:53:58.730Z,10.97
2019-02-16T16:56:48.511Z,10.67
2019-02-16T16:59:43.129Z,10.40
2019-02-16T17:02:33.228Z,11.07
2019-02-16T17:05:34.976Z,11.13
2019-02-16T17:08:16.353Z,10.70
2019-02-16T17:11:09.081Z,10.20
2019-02-16T17:14:16.533Z,11.30
2019-02-16T17:17:05.026Z,11.40
2019-02-16T17:19:55.369Z,11.63
2019-02-16T17:22:53.910Z,11.43
2019-02-16T17:25:35.430Z,12.43
2019-02-16T17:28:33.746Z,11.70
2019-02-16T17:31:15.568Z,10.83
2019-02-16T17:34:07.690Z,12.87
2019-02-16T17:36:45.687Z,12.40
2019-02-16T17:39:36.308Z,11.77
2019-02-16T17:42:18.707Z,12.88
2019-02-16T17:44:56.814Z,13.10
2019-02-16T17:47:54.855Z,14.40
2019-02-16T17:50:35.471Z,13.53
2019-02-16T17:53:23.394Z,13.20
2019-02-16T17:56:11.557Z,13.07
2019-02-16T17:58:59.363Z,14.07
2019-02-16T18:01:54.253Z,14.23
2019-02-16T18:04:43.264Z,12.93
2019-02-16T18:07:36.593Z,13.63
2019-02-16T18:10:28.102Z,14.63
2019-02-16T18:13:04.588Z,12.88
2019-02-16T18:15:59.723Z,12.90
2019-02-16T18:18:45.176Z,12.40
2019-02-16T18:21:23.662Z,13.20
2019-02-16T18:24:24.624Z,13.17
2019-02-16T18:27:04.231Z,12.73
2019-02-16T18:29:49.967Z,13.23
2019-02-16T18:32:32.921Z,13.08
2019-02-16T18:35:24.002Z,12.93
2019-02-16T18:37:59.299Z,12.73
2019-02-16T18:40:42.241Z,13.70
2019-02-16T18:43:53.085Z,13.67
2019-02-16T18:46:38.635Z,13.07
2019-02-16T18:49:18.811Z,13.03
2019-02-16T18:52:13.794Z,13.20
2019-02-16T18:55:10.986Z,15.03
2019-02-16T18:58:05.354Z,14.20
2019-02-16T19:00:40.930Z,14.07
2019-02-16T19:03:19.619Z,15.58
2019-02-16T19:05:58.553Z,14.40
2019-02-16T19:09:04.017Z,14.73
2019-02-16T19:11:59.168Z,14.70
2019-02-16T19:14:50.874Z,13.53
2019-02-16T19:17:34.996Z,14.00
2019-02-16T19:20:23.657Z,13.50
2019-02-16T19:23:12.550Z,15.23
2019-02-16T19:25:55.735Z,13.55
2019-02-16T19:28:32.707Z,14.70
2019-02-16T19:31:20.413Z,15.17
2019-02-16T19:34:08.263Z,16.00
2019-02-16T19:37:05.989Z,19.07
2019-02-16T19:40:07.655Z,16.47
2019-02-16T19:42:59.954Z,16.27
2019-02-16T19:45:47.641Z,16.90
2019-02-16T19:48:36.687Z,17.57
2019-02-16T19:51:30.653Z,17.97
2019-02-16T19:54:17.747Z,16.63
2019-02-16T19:57:05.204Z,17.17
2019-02-16T19:59:40.425Z,16.70
2019-02-16T20:02:28.161Z,16.67
2019-02-16T20:05:25.986Z,16.73
2019-02-16T20:08:08.436Z,16.27
2019-02-16T20:10:46.832Z,16.07
2019-02-16T20:13:39.582Z,15.90
2019-02-16T20:16:33.257Z,16.90
2019-02-16T20:19:34.339Z,15.67
2019-02-16T20:22:26.976Z,17.60
2019-02-16T20:25:23.738Z,16.53
2019-02-16T20:28:16.994Z,17.73
2019-02-16T20:31:13.101Z,19.20
2019-02-16T20:33:49.828Z,17.17
2019-02-16T20:36:45.250Z,16.43
2019-02-16T20:39:40.308Z,14.18
2019-02-16T21:05:13.085Z,14.83
2019-02-16T21:08:05.224Z,16.10
2019-02-16T21:10:46.540Z,17.57
2019-02-16T21:13:39.002Z,15.10
2019-02-16T21:16:20.609Z,16.00
2019-02-16T21:19:19.485Z,16.13
2019-02-16T21:22:09.631Z,15.53
2019-02-16T21:24:52.213Z,17.90
2019-02-16T21:27:27.982Z,20.60
2019-02-16T21:30:16.278Z,18.20
2019-02-16T21:33:01.227Z,20.02
2019-02-16T21:36:01.487Z,16.33
2019-02-16T21:38:45.060Z,16.10
2019-02-16T21:41:24.639Z,15.97
2019-02-16T21:44:13.809Z,16.50
2019-02-16T21:47:06.006Z,16.23
2019-02-16T21:49:57.798Z,15.83
2019-02-16T21:52:42.542Z,15.73
2019-02-16T21:55:28.294Z,14.97
2019-02-16T21:58:20.223Z,14.80
2019-02-16T22:01:01.001Z,14.80
2019-02-16T22:03:48.486Z,15.35
2019-02-16T22:06:41.612Z,15.30
2019-02-16T22:09:33.379Z,16.50
2019-02-16T22:12:22.365Z,16.37
2019-02-16T22:14:52.184Z,16.40
2019-02-16T22:17:21.952Z,17.03
2019-02-16T22:19:51.945Z,15.23
2019-02-16T22:22:22.992Z,14.73
2019-02-16T22:24:53.052Z,15.93
2019-02-16T22:27:26.337Z,16.47
2019-02-16T22:29:57.783Z,17.05
2019-02-16T22:32:27.831Z,15.73
2019-02-16T22:34:59.212Z,15.65
2019-02-16T22:37:29.331Z,15.67
2019-02-16T22:40:01.297Z,15.13
2019-02-16T22:42:32.788Z,14.07
2019-02-16T22:45:02.626Z,11.95
2019-02-16T22:47:32.678Z,12.00
2019-02-16T22:50:02.800Z,11.85
2019-02-16T22:52:33.191Z,12.03
2019-02-16T22:55:03.958Z,11.28
2019-02-16T22:57:35.208Z,11.27
2019-02-16T23:00:14.940Z,11.22
2019-02-16T23:02:46.752Z,10.97
2019-02-16T23:05:18.944Z,10.67
2019-02-16T23:07:48.861Z,10.45
2019-02-16T23:10:19.008Z,10.77
2019-02-16T23:12:50.018Z,10.48
2019-02-16T23:15:22.001Z,11.13
2019-02-16T23:17:51.931Z,10.27
2019-02-16T23:20:21.934Z,11.10
2019-02-16T23:22:52.099Z,10.30
2019-02-16T23:25:22.140Z,11.80
2019-02-16T23:27:51.933Z,11.15
2019-02-16T23:30:22.194Z,10.00
2019-02-16T23:32:52.060Z,11.43
2019-02-16T23:35:22.028Z,12.00
2019-02-16T23:37:52.024Z,12.78
2019-02-16T23:40:22.164Z,10.70
2019-02-16T23:42:52.021Z,10.87
2019-02-16T23:45:21.994Z,9.73
2019-02-16T23:47:51.989Z,10.33
2019-02-16T23:50:22.147Z,10.15
2019-02-16T23:52:52.991Z,9.87
2019-02-16T23:55:23.176Z,10.27
2019-02-16T23:57:53.216Z,9.97
